sensor_id;sensor_type;location;lat;lon;timestamp;P1;durP1;ratioP1;P2;durP2;ratioP2
55455;SDS011;63021;52.836;6.376;2023-08-06T00:00:05;13.73;;;11.25;;
55455;SDS011;63021;52.836;6.376;2023-08-06T00:02:31;15.30;;;12.20;;
55455;SDS011;63021;52.836;6.376;2023-08-06T00:04:56;13.52;;;12.20;;
55455;SDS011;63021;52.836;6.376;2023-08-06T00:07:22;14.18;;;11.65;;
55455;SDS011;63021;52.836;6.376;2023-08-06T00:09:47;11.55;;;10.45;;
55455;SDS011;63021;52.836;6.376;2023-08-06T00:12:13;12.57;;;10.48;;
55455;SDS011;63021;52.836;6.376;2023-08-06T00:14:38;14.50;;;11.07;;
55455;SDS011;63021;52.836;6.376;2023-08-06T00:17:03;11.52;;;10.15;;
55455;SDS011;63021;52.836;6.376;2023-08-06T00:19:30;11.15;;;9.43;;
55455;SDS011;63021;52.836;6.376;2023-08-06T00:21:56;12.70;;;10.25;;
55455;SDS011;63021;52.836;6.376;2023-08-06T00:24:21;12.82;;;10.27;;
55455;SDS011;63021;52.836;6.376;2023-08-06T00:26:47;11.13;;;9.98;;
55455;SDS011;63021;52.836;6.376;2023-08-06T00:29:12;10.65;;;9.55;;
55455;SDS011;63021;52.836;6.376;2023-08-06T00:31:37;10.70;;;9.60;;
55455;SDS011;63021;52.836;6.376;2023-08-06T00:34:03;16.75;;;9.60;;
55455;SDS011;63021;52.836;6.376;2023-08-06T00:36:28;10.02;;;9.00;;
55455;SDS011;63021;52.836;6.376;2023-08-06T00:38:53;10.40;;;9.40;;
55455;SDS011;63021;52.836;6.376;2023-08-06T00:41:20;13.68;;;9.50;;
55455;SDS011;63021;52.836;6.376;2023-08-06T00:43:46;12.68;;;9.90;;
55455;SDS011;63021;52.836;6.376;2023-08-06T00:46:11;14.45;;;9.85;;
55455;SDS011;63021;52.836;6.376;2023-08-06T00:48:37;9.65;;;8.75;;
55455;SDS011;63021;52.836;6.376;2023-08-06T00:51:02;10.98;;;9.32;;
55455;SDS011;63021;52.836;6.376;2023-08-06T00:53:28;12.60;;;9.65;;
55455;SDS011;63021;52.836;6.376;2023-08-06T00:55:53;11.50;;;9.55;;
55455;SDS011;63021;52.836;6.376;2023-08-06T00:58:19;10.55;;;8.98;;
55455;SDS011;63021;52.836;6.376;2023-08-06T01:00:44;12.00;;;9.23;;
55455;SDS011;63021;52.836;6.376;2023-08-06T01:03:10;11.13;;;10.02;;
55455;SDS011;63021;52.836;6.376;2023-08-06T01:05:38;10.27;;;9.18;;
55455;SDS011;63021;52.836;6.376;2023-08-06T01:14:08;9.40;;;8.50;;
55455;SDS011;63021;52.836;6.376;2023-08-06T01:16:43;15.15;;;8.75;;
55455;SDS011;63021;52.836;6.376;2023-08-06T01:19:18;12.88;;;9.20;;
55455;SDS011;63021;52.836;6.376;2023-08-06T01:21:44;10.43;;;9.32;;
55455;SDS011;63021;52.836;6.376;2023-08-06T01:24:09;12.65;;;9.00;;
55455;SDS011;63021;52.836;6.376;2023-08-06T01:26:37;10.98;;;8.68;;
55455;SDS011;63021;52.836;6.376;2023-08-06T01:29:11;13.40;;;9.00;;
55455;SDS011;63021;52.836;6.376;2023-08-06T01:31:43;9.27;;;8.30;;
55455;SDS011;63021;52.836;6.376;2023-08-06T01:34:10;13.48;;;9.18;;
55455;SDS011;63021;52.836;6.376;2023-08-06T01:36:42;10.13;;;8.82;;
55455;SDS011;63021;52.836;6.376;2023-08-06T01:39:07;14.43;;;9.13;;
55455;SDS011;63021;52.836;6.376;2023-08-06T01:41:33;9.52;;;8.52;;
55455;SDS011;63021;52.836;6.376;2023-08-06T01:43:58;10.07;;;8.50;;
55455;SDS011;63021;52.836;6.376;2023-08-06T01:46:23;11.00;;;8.50;;
55455;SDS011;63021;52.836;6.376;2023-08-06T01:48:49;11.00;;;8.48;;
55455;SDS011;63021;52.836;6.376;2023-08-06T01:51:14;8.98;;;8.07;;
55455;SDS011;63021;52.836;6.376;2023-08-06T01:53:40;12.90;;;8.80;;
55455;SDS011;63021;52.836;6.376;2023-08-06T01:56:05;11.85;;;8.10;;
55455;SDS011;63021;52.836;6.376;2023-08-06T01:58:31;8.70;;;7.90;;
55455;SDS011;63021;52.836;6.376;2023-08-06T02:00:56;10.65;;;8.18;;
55455;SDS011;63021;52.836;6.376;2023-08-06T02:03:22;8.40;;;7.57;;
55455;SDS011;63021;52.836;6.376;2023-08-06T02:05:47;10.88;;;9.25;;
55455;SDS011;63021;52.836;6.376;2023-08-06T02:08:12;12.43;;;8.25;;
55455;SDS011;63021;52.836;6.376;2023-08-06T02:10:38;9.27;;;8.10;;
55455;SDS011;63021;52.836;6.376;2023-08-06T02:13:03;9.13;;;8.23;;
55455;SDS011;63021;52.836;6.376;2023-08-06T02:15:29;15.73;;;9.98;;
55455;SDS011;63021;52.836;6.376;2023-08-06T02:17:54;8.90;;;8.00;;
55455;SDS011;63021;52.836;6.376;2023-08-06T02:20:19;9.75;;;8.02;;
55455;SDS011;63021;52.836;6.376;2023-08-06T02:22:45;13.88;;;10.55;;
55455;SDS011;63021;52.836;6.376;2023-08-06T02:25:10;9.27;;;7.85;;
55455;SDS011;63021;52.836;6.376;2023-08-06T02:27:36;8.75;;;7.55;;
55455;SDS011;63021;52.836;6.376;2023-08-06T02:30:02;9.38;;;8.35;;
55455;SDS011;63021;52.836;6.376;2023-08-06T02:32:29;8.93;;;7.78;;
55455;SDS011;63021;52.836;6.376;2023-08-06T02:34:56;12.27;;;8.18;;
55455;SDS011;63021;52.836;6.376;2023-08-06T02:37:22;10.95;;;8.32;;
55455;SDS011;63021;52.836;6.376;2023-08-06T02:39:47;9.73;;;8.20;;
55455;SDS011;63021;52.836;6.376;2023-08-06T02:42:12;12.07;;;7.68;;
55455;SDS011;63021;52.836;6.376;2023-08-06T02:44:38;9.55;;;7.40;;
55455;SDS011;63021;52.836;6.376;2023-08-06T02:47:03;8.98;;;8.07;;
55455;SDS011;63021;52.836;6.376;2023-08-06T02:49:29;12.43;;;8.20;;
55455;SDS011;63021;52.836;6.376;2023-08-06T02:51:54;8.73;;;7.93;;
55455;SDS011;63021;52.836;6.376;2023-08-06T02:54:20;10.82;;;9.00;;
55455;SDS011;63021;52.836;6.376;2023-08-06T02:56:45;9.30;;;7.72;;
55455;SDS011;63021;52.836;6.376;2023-08-06T02:59:11;11.43;;;8.00;;
55455;SDS011;63021;52.836;6.376;2023-08-06T03:01:37;14.40;;;8.30;;
55455;SDS011;63021;52.836;6.376;2023-08-06T03:04:03;12.25;;;8.77;;
55455;SDS011;63021;52.836;6.376;2023-08-06T03:06:28;13.07;;;7.90;;
55455;SDS011;63021;52.836;6.376;2023-08-06T03:08:54;9.30;;;8.15;;
55455;SDS011;63021;52.836;6.376;2023-08-06T03:11:19;12.23;;;9.55;;
55455;SDS011;63021;52.836;6.376;2023-08-06T03:13:45;8.68;;;7.85;;
55455;SDS011;63021;52.836;6.376;2023-08-06T03:16:10;9.73;;;8.65;;
55455;SDS011;63021;52.836;6.376;2023-08-06T03:18:35;11.73;;;8.63;;
55455;SDS011;63021;52.836;6.376;2023-08-06T03:21:01;8.55;;;7.78;;
55455;SDS011;63021;52.836;6.376;2023-08-06T03:23:26;8.98;;;8.13;;
55455;SDS011;63021;52.836;6.376;2023-08-06T03:25:52;9.02;;;8.13;;
55455;SDS011;63021;52.836;6.376;2023-08-06T03:28:17;12.05;;;8.20;;
55455;SDS011;63021;52.836;6.376;2023-08-06T03:30:42;9.38;;;8.50;;
55455;SDS011;63021;52.836;6.376;2023-08-06T03:33:08;9.82;;;8.23;;
55455;SDS011;63021;52.836;6.376;2023-08-06T03:35:34;11.63;;;8.35;;
55455;SDS011;63021;52.836;6.376;2023-08-06T03:37:59;9.57;;;8.02;;
55455;SDS011;63021;52.836;6.376;2023-08-06T03:40:24;11.38;;;8.02;;
55455;SDS011;63021;52.836;6.376;2023-08-06T03:42:50;8.23;;;7.53;;
55455;SDS011;63021;52.836;6.376;2023-08-06T03:45:15;11.57;;;8.13;;
55455;SDS011;63021;52.836;6.376;2023-08-06T03:47:40;10.60;;;8.43;;
55455;SDS011;63021;52.836;6.376;2023-08-06T03:50:07;9.63;;;8.23;;
55455;SDS011;63021;52.836;6.376;2023-08-06T03:52:32;13.00;;;9.10;;
55455;SDS011;63021;52.836;6.376;2023-08-06T03:54:58;10.07;;;8.20;;
55455;SDS011;63021;52.836;6.376;2023-08-06T03:57:23;11.98;;;8.95;;
55455;SDS011;63021;52.836;6.376;2023-08-06T03:59:48;9.95;;;8.38;;
55455;SDS011;63021;52.836;6.376;2023-08-06T04:02:14;12.75;;;9.55;;
55455;SDS011;63021;52.836;6.376;2023-08-06T04:04:39;13.15;;;9.20;;
55455;SDS011;63021;52.836;6.376;2023-08-06T04:07:04;9.48;;;8.57;;
55455;SDS011;63021;52.836;6.376;2023-08-06T04:09:30;11.95;;;8.88;;
55455;SDS011;63021;52.836;6.376;2023-08-06T04:11:55;9.75;;;8.85;;
55455;SDS011;63021;52.836;6.376;2023-08-06T04:14:23;11.07;;;9.70;;
55455;SDS011;63021;52.836;6.376;2023-08-06T04:16:49;13.68;;;8.85;;
55455;SDS011;63021;52.836;6.376;2023-08-06T04:19:14;10.55;;;9.43;;
55455;SDS011;63021;52.836;6.376;2023-08-06T04:21:39;9.82;;;8.35;;
55455;SDS011;63021;52.836;6.376;2023-08-06T04:24:05;10.18;;;7.95;;
55455;SDS011;63021;52.836;6.376;2023-08-06T04:26:30;9.23;;;8.32;;
55455;SDS011;63021;52.836;6.376;2023-08-06T04:28:56;10.68;;;8.20;;
55455;SDS011;63021;52.836;6.376;2023-08-06T04:31:21;10.57;;;9.00;;
55455;SDS011;63021;52.836;6.376;2023-08-06T04:33:47;10.80;;;9.70;;
55455;SDS011;63021;52.836;6.376;2023-08-06T04:36:12;13.70;;;9.52;;
55455;SDS011;63021;52.836;6.376;2023-08-06T04:38:38;12.35;;;9.50;;
55455;SDS011;63021;52.836;6.376;2023-08-06T04:41:03;11.80;;;8.75;;
55455;SDS011;63021;52.836;6.376;2023-08-06T04:43:29;12.65;;;9.25;;
55455;SDS011;63021;52.836;6.376;2023-08-06T04:45:54;13.85;;;10.02;;
55455;SDS011;63021;52.836;6.376;2023-08-06T04:48:21;13.63;;;9.77;;
55455;SDS011;63021;52.836;6.376;2023-08-06T04:50:47;13.50;;;10.80;;
55455;SDS011;63021;52.836;6.376;2023-08-06T04:53:14;15.77;;;10.10;;
55455;SDS011;63021;52.836;6.376;2023-08-06T04:55:40;12.88;;;10.05;;
55455;SDS011;63021;52.836;6.376;2023-08-06T04:58:09;12.23;;;10.10;;
55455;SDS011;63021;52.836;6.376;2023-08-06T05:00:35;11.88;;;9.70;;
55455;SDS011;63021;52.836;6.376;2023-08-06T05:03:00;12.93;;;9.70;;
55455;SDS011;63021;52.836;6.376;2023-08-06T05:05:27;13.82;;;10.77;;
55455;SDS011;63021;52.836;6.376;2023-08-06T05:07:53;10.48;;;9.38;;
55455;SDS011;63021;52.836;6.376;2023-08-06T05:10:20;11.15;;;9.93;;
55455;SDS011;63021;52.836;6.376;2023-08-06T05:12:46;18.35;;;11.50;;
55455;SDS011;63021;52.836;6.376;2023-08-06T05:15:11;13.18;;;11.27;;
55455;SDS011;63021;52.836;6.376;2023-08-06T05:17:38;13.63;;;10.32;;
55455;SDS011;63021;52.836;6.376;2023-08-06T05:20:03;13.80;;;10.43;;
55455;SDS011;63021;52.836;6.376;2023-08-06T05:22:29;11.82;;;10.13;;
55455;SDS011;63021;52.836;6.376;2023-08-06T05:24:55;12.65;;;10.90;;
55455;SDS011;63021;52.836;6.376;2023-08-06T05:27:20;13.50;;;12.05;;
55455;SDS011;63021;52.836;6.376;2023-08-06T05:29:45;13.98;;;10.20;;
55455;SDS011;63021;52.836;6.376;2023-08-06T05:32:11;16.98;;;11.80;;
55455;SDS011;63021;52.836;6.376;2023-08-06T05:34:37;12.70;;;10.70;;
55455;SDS011;63021;52.836;6.376;2023-08-06T05:37:02;11.57;;;10.38;;
55455;SDS011;63021;52.836;6.376;2023-08-06T05:39:28;11.88;;;10.38;;
55455;SDS011;63021;52.836;6.376;2023-08-06T05:41:54;12.13;;;10.85;;
55455;SDS011;63021;52.836;6.376;2023-08-06T05:44:20;12.13;;;10.98;;
55455;SDS011;63021;52.836;6.376;2023-08-06T05:46:46;12.52;;;11.23;;
55455;SDS011;63021;52.836;6.376;2023-08-06T05:49:12;17.27;;;12.05;;
55455;SDS011;63021;52.836;6.376;2023-08-06T05:51:39;12.98;;;11.68;;
55455;SDS011;63021;52.836;6.376;2023-08-06T05:54:04;14.93;;;11.60;;
55455;SDS011;63021;52.836;6.376;2023-08-06T05:56:30;14.48;;;11.10;;
55455;SDS011;63021;52.836;6.376;2023-08-06T05:58:55;11.75;;;10.63;;
55455;SDS011;63021;52.836;6.376;2023-08-06T06:01:20;12.40;;;10.65;;
55455;SDS011;63021;52.836;6.376;2023-08-06T06:03:46;14.00;;;10.90;;
55455;SDS011;63021;52.836;6.376;2023-08-06T06:06:11;11.82;;;10.73;;
55455;SDS011;63021;52.836;6.376;2023-08-06T06:08:37;13.75;;;11.50;;
55455;SDS011;63021;52.836;6.376;2023-08-06T06:11:02;12.38;;;10.88;;
55455;SDS011;63021;52.836;6.376;2023-08-06T06:13:27;13.75;;;11.32;;
55455;SDS011;63021;52.836;6.376;2023-08-06T06:15:56;11.93;;;10.75;;
55455;SDS011;63021;52.836;6.376;2023-08-06T06:18:22;15.32;;;11.05;;
55455;SDS011;63021;52.836;6.376;2023-08-06T06:20:47;17.75;;;13.35;;
55455;SDS011;63021;52.836;6.376;2023-08-06T06:23:13;13.10;;;11.82;;
55455;SDS011;63021;52.836;6.376;2023-08-06T06:25:57;12.98;;;11.63;;
55455;SDS011;63021;52.836;6.376;2023-08-06T06:28:22;12.40;;;11.05;;
55455;SDS011;63021;52.836;6.376;2023-08-06T06:30:48;13.50;;;11.88;;
55455;SDS011;63021;52.836;6.376;2023-08-06T06:33:13;13.05;;;11.75;;
55455;SDS011;63021;52.836;6.376;2023-08-06T06:35:39;12.90;;;11.70;;
55455;SDS011;63021;52.836;6.376;2023-08-06T06:38:04;14.65;;;12.38;;
55455;SDS011;63021;52.836;6.376;2023-08-06T06:40:29;12.68;;;11.48;;
55455;SDS011;63021;52.836;6.376;2023-08-06T06:42:55;14.93;;;11.88;;
55455;SDS011;63021;52.836;6.376;2023-08-06T06:45:20;17.58;;;12.82;;
55455;SDS011;63021;52.836;6.376;2023-08-06T06:47:46;15.90;;;12.73;;
55455;SDS011;63021;52.836;6.376;2023-08-06T06:50:11;17.52;;;11.90;;
55455;SDS011;63021;52.836;6.376;2023-08-06T06:52:37;16.35;;;12.88;;
55455;SDS011;63021;52.836;6.376;2023-08-06T06:55:02;13.35;;;11.75;;
55455;SDS011;63021;52.836;6.376;2023-08-06T06:57:28;14.88;;;13.38;;
55455;SDS011;63021;52.836;6.376;2023-08-06T06:59:53;15.38;;;13.73;;
55455;SDS011;63021;52.836;6.376;2023-08-06T07:02:19;14.52;;;13.02;;
55455;SDS011;63021;52.836;6.376;2023-08-06T07:04:44;15.13;;;13.55;;
55455;SDS011;63021;52.836;6.376;2023-08-06T07:07:09;15.23;;;13.65;;
55455;SDS011;63021;52.836;6.376;2023-08-06T07:09:35;14.70;;;13.27;;
55455;SDS011;63021;52.836;6.376;2023-08-06T07:12:00;15.10;;;12.90;;
55455;SDS011;63021;52.836;6.376;2023-08-06T07:14:26;15.35;;;13.85;;
55455;SDS011;63021;52.836;6.376;2023-08-06T07:16:54;14.13;;;12.18;;
55455;SDS011;63021;52.836;6.376;2023-08-06T07:19:19;14.10;;;12.65;;
55455;SDS011;63021;52.836;6.376;2023-08-06T07:21:45;15.13;;;12.20;;
55455;SDS011;63021;52.836;6.376;2023-08-06T07:24:10;13.90;;;12.48;;
55455;SDS011;63021;52.836;6.376;2023-08-06T07:26:37;24.05;;;14.05;;
55455;SDS011;63021;52.836;6.376;2023-08-06T07:29:02;14.00;;;12.60;;
55455;SDS011;63021;52.836;6.376;2023-08-06T07:31:28;14.23;;;12.73;;
55455;SDS011;63021;52.836;6.376;2023-08-06T07:33:53;14.45;;;13.05;;
55455;SDS011;63021;52.836;6.376;2023-08-06T07:36:20;15.00;;;13.25;;
55455;SDS011;63021;52.836;6.376;2023-08-06T07:38:45;14.77;;;13.38;;
55455;SDS011;63021;52.836;6.376;2023-08-06T07:41:11;14.55;;;13.05;;
55455;SDS011;63021;52.836;6.376;2023-08-06T07:43:36;18.13;;;13.23;;
55455;SDS011;63021;52.836;6.376;2023-08-06T07:46:02;14.82;;;12.45;;
55455;SDS011;63021;52.836;6.376;2023-08-06T07:48:28;14.75;;;12.40;;
55455;SDS011;63021;52.836;6.376;2023-08-06T07:50:54;14.00;;;12.55;;
55455;SDS011;63021;52.836;6.376;2023-08-06T07:53:23;16.10;;;13.70;;
55455;SDS011;63021;52.836;6.376;2023-08-06T07:55:52;21.23;;;12.93;;
55455;SDS011;63021;52.836;6.376;2023-08-06T07:58:19;14.10;;;12.63;;
55455;SDS011;63021;52.836;6.376;2023-08-06T08:00:45;15.80;;;13.35;;
55455;SDS011;63021;52.836;6.376;2023-08-06T08:03:11;13.90;;;12.43;;
55455;SDS011;63021;52.836;6.376;2023-08-06T08:05:43;13.52;;;12.10;;
55455;SDS011;63021;52.836;6.376;2023-08-06T08:08:09;14.65;;;12.02;;
55455;SDS011;63021;52.836;6.376;2023-08-06T08:10:35;12.90;;;11.60;;
55455;SDS011;63021;52.836;6.376;2023-08-06T08:13:04;12.18;;;10.93;;
55455;SDS011;63021;52.836;6.376;2023-08-06T08:15:30;12.20;;;11.00;;
55455;SDS011;63021;52.836;6.376;2023-08-06T08:17:56;12.43;;;10.93;;
55455;SDS011;63021;52.836;6.376;2023-08-06T08:20:22;12.93;;;11.52;;
55455;SDS011;63021;52.836;6.376;2023-08-06T08:22:47;11.80;;;10.57;;
55455;SDS011;63021;52.836;6.376;2023-08-06T08:25:13;13.35;;;12.05;;
55455;SDS011;63021;52.836;6.376;2023-08-06T08:27:39;13.65;;;10.60;;
55455;SDS011;63021;52.836;6.376;2023-08-06T08:30:04;12.63;;;11.32;;
55455;SDS011;63021;52.836;6.376;2023-08-06T08:32:30;10.88;;;9.80;;
55455;SDS011;63021;52.836;6.376;2023-08-06T08:34:56;11.95;;;10.85;;
55455;SDS011;63021;52.836;6.376;2023-08-06T08:37:22;11.93;;;10.70;;
55455;SDS011;63021;52.836;6.376;2023-08-06T08:39:48;12.77;;;10.70;;
55455;SDS011;63021;52.836;6.376;2023-08-06T08:42:13;11.23;;;10.07;;
55455;SDS011;63021;52.836;6.376;2023-08-06T08:44:40;12.00;;;10.90;;
55455;SDS011;63021;52.836;6.376;2023-08-06T08:47:07;10.80;;;9.70;;
55455;SDS011;63021;52.836;6.376;2023-08-06T08:49:34;14.50;;;10.50;;
55455;SDS011;63021;52.836;6.376;2023-08-06T08:52:00;12.52;;;10.20;;
55455;SDS011;63021;52.836;6.376;2023-08-06T08:54:27;10.70;;;9.70;;
55455;SDS011;63021;52.836;6.376;2023-08-06T08:56:56;11.30;;;10.05;;
55455;SDS011;63021;52.836;6.376;2023-08-06T08:59:21;10.38;;;9.30;;
55455;SDS011;63021;52.836;6.376;2023-08-06T09:01:48;10.48;;;9.48;;
55455;SDS011;63021;52.836;6.376;2023-08-06T09:04:18;12.55;;;11.35;;
55455;SDS011;63021;52.836;6.376;2023-08-06T09:06:44;11.20;;;9.82;;
55455;SDS011;63021;52.836;6.376;2023-08-06T09:09:15;10.27;;;9.27;;
55455;SDS011;63021;52.836;6.376;2023-08-06T09:11:45;10.88;;;9.77;;
55455;SDS011;63021;52.836;6.376;2023-08-06T09:14:14;10.60;;;9.60;;
55455;SDS011;63021;52.836;6.376;2023-08-06T09:16:40;11.00;;;9.90;;
55455;SDS011;63021;52.836;6.376;2023-08-06T09:19:09;11.98;;;10.88;;
55455;SDS011;63021;52.836;6.376;2023-08-06T09:21:39;10.43;;;9.40;;
55455;SDS011;63021;52.836;6.376;2023-08-06T09:24:08;11.55;;;9.50;;
55455;SDS011;63021;52.836;6.376;2023-08-06T09:26:36;10.63;;;9.57;;
55455;SDS011;63021;52.836;6.376;2023-08-06T09:29:07;9.38;;;8.50;;
55455;SDS011;63021;52.836;6.376;2023-08-06T09:34:23;14.00;;;9.05;;
55455;SDS011;63021;52.836;6.376;2023-08-06T09:36:49;9.55;;;8.55;;
55455;SDS011;63021;52.836;6.376;2023-08-06T09:39:17;9.45;;;8.52;;
55455;SDS011;63021;52.836;6.376;2023-08-06T09:41:44;8.75;;;7.85;;
55455;SDS011;63021;52.836;6.376;2023-08-06T09:44:29;8.60;;;7.70;;
55455;SDS011;63021;52.836;6.376;2023-08-06T09:46:57;7.95;;;7.10;;
55455;SDS011;63021;52.836;6.376;2023-08-06T09:51:58;8.95;;;7.93;;
55455;SDS011;63021;52.836;6.376;2023-08-06T09:54:25;7.20;;;6.60;;
55455;SDS011;63021;52.836;6.376;2023-08-06T09:56:55;8.00;;;7.30;;
55455;SDS011;63021;52.836;6.376;2023-08-06T09:59:24;9.90;;;7.30;;
55455;SDS011;63021;52.836;6.376;2023-08-06T10:01:53;7.78;;;6.55;;
55455;SDS011;63021;52.836;6.376;2023-08-06T10:04:22;9.77;;;6.43;;
55455;SDS011;63021;52.836;6.376;2023-08-06T10:06:48;6.57;;;5.60;;
55455;SDS011;63021;52.836;6.376;2023-08-06T10:09:14;5.70;;;5.20;;
55455;SDS011;63021;52.836;6.376;2023-08-06T10:11:40;6.55;;;5.95;;
55455;SDS011;63021;52.836;6.376;2023-08-06T10:14:16;6.00;;;5.47;;
55455;SDS011;63021;52.836;6.376;2023-08-06T10:16:50;5.55;;;5.15;;
55455;SDS011;63021;52.836;6.376;2023-08-06T10:19:16;6.78;;;5.60;;
55455;SDS011;63021;52.836;6.376;2023-08-06T10:22:17;11.88;;;5.47;;
55455;SDS011;63021;52.836;6.376;2023-08-06T10:24:52;6.57;;;5.95;;
55455;SDS011;63021;52.836;6.376;2023-08-06T10:29:56;6.45;;;5.95;;
55455;SDS011;63021;52.836;6.376;2023-08-06T10:32:51;6.10;;;5.43;;
55455;SDS011;63021;52.836;6.376;2023-08-06T10:38:12;7.25;;;5.30;;
55455;SDS011;63021;52.836;6.376;2023-08-06T10:40:43;8.13;;;5.07;;
55455;SDS011;63021;52.836;6.376;2023-08-06T10:45:52;5.15;;;4.72;;
55455;SDS011;63021;52.836;6.376;2023-08-06T10:48:36;6.30;;;4.55;;
55455;SDS011;63021;52.836;6.376;2023-08-06T10:51:10;6.43;;;4.30;;
55455;SDS011;63021;52.836;6.376;2023-08-06T10:53:37;4.93;;;4.53;;
55455;SDS011;63021;52.836;6.376;2023-08-06T10:56:13;5.65;;;4.28;;
55455;SDS011;63021;52.836;6.376;2023-08-06T10:58:39;5.63;;;4.78;;
55455;SDS011;63021;52.836;6.376;2023-08-06T11:01:05;4.97;;;3.90;;
55455;SDS011;63021;52.836;6.376;2023-08-06T11:03:32;4.95;;;4.53;;
55455;SDS011;63021;52.836;6.376;2023-08-06T11:05:58;5.90;;;5.00;;
55455;SDS011;63021;52.836;6.376;2023-08-06T11:08:26;7.40;;;4.47;;
55455;SDS011;63021;52.836;6.376;2023-08-06T11:10:53;4.00;;;3.70;;
55455;SDS011;63021;52.836;6.376;2023-08-06T11:13:19;7.15;;;3.65;;
55455;SDS011;63021;52.836;6.376;2023-08-06T11:15:45;3.65;;;3.35;;
55455;SDS011;63021;52.836;6.376;2023-08-06T11:20:29;6.97;;;4.22;;
55455;SDS011;63021;52.836;6.376;2023-08-06T11:22:55;4.43;;;2.97;;
55455;SDS011;63021;52.836;6.376;2023-08-06T11:25:20;5.95;;;3.92;;
55455;SDS011;63021;52.836;6.376;2023-08-06T11:27:47;4.70;;;2.80;;
55455;SDS011;63021;52.836;6.376;2023-08-06T11:30:14;3.88;;;3.05;;
55455;SDS011;63021;52.836;6.376;2023-08-06T11:32:45;3.67;;;2.97;;
55455;SDS011;63021;52.836;6.376;2023-08-06T11:35:12;3.55;;;2.85;;
55455;SDS011;63021;52.836;6.376;2023-08-06T11:37:38;4.60;;;2.67;;
55455;SDS011;63021;52.836;6.376;2023-08-06T11:40:09;5.50;;;2.83;;
55455;SDS011;63021;52.836;6.376;2023-08-06T11:42:36;6.72;;;2.50;;
55455;SDS011;63021;52.836;6.376;2023-08-06T11:45:02;2.58;;;2.38;;
55455;SDS011;63021;52.836;6.376;2023-08-06T11:47:29;7.53;;;2.85;;
55455;SDS011;63021;52.836;6.376;2023-08-06T11:49:55;2.78;;;2.17;;
55455;SDS011;63021;52.836;6.376;2023-08-06T11:52:24;3.15;;;2.13;;
55455;SDS011;63021;52.836;6.376;2023-08-06T11:55:00;3.63;;;2.42;;
55455;SDS011;63021;52.836;6.376;2023-08-06T11:57:32;2.75;;;2.38;;
55455;SDS011;63021;52.836;6.376;2023-08-06T12:00:10;5.38;;;2.08;;
55455;SDS011;63021;52.836;6.376;2023-08-06T12:02:39;2.80;;;2.50;;
55455;SDS011;63021;52.836;6.376;2023-08-06T12:05:10;3.13;;;2.38;;
55455;SDS011;63021;52.836;6.376;2023-08-06T12:07:44;5.57;;;2.28;;
55455;SDS011;63021;52.836;6.376;2023-08-06T12:10:12;4.70;;;2.45;;
55455;SDS011;63021;52.836;6.376;2023-08-06T12:12:38;5.38;;;2.40;;
55455;SDS011;63021;52.836;6.376;2023-08-06T12:15:05;2.92;;;2.60;;
55455;SDS011;63021;52.836;6.376;2023-08-06T12:17:31;3.00;;;2.70;;
55455;SDS011;63021;52.836;6.376;2023-08-06T12:19:57;3.08;;;2.28;;
55455;SDS011;63021;52.836;6.376;2023-08-06T12:22:23;3.78;;;2.90;;
55455;SDS011;63021;52.836;6.376;2023-08-06T12:24:48;2.78;;;2.58;;
55455;SDS011;63021;52.836;6.376;2023-08-06T12:27:14;3.53;;;3.17;;
55455;SDS011;63021;52.836;6.376;2023-08-06T12:29:43;3.70;;;3.05;;
55455;SDS011;63021;52.836;6.376;2023-08-06T12:32:10;2.75;;;2.42;;
55455;SDS011;63021;52.836;6.376;2023-08-06T12:34:37;3.03;;;2.58;;
55455;SDS011;63021;52.836;6.376;2023-08-06T12:37:07;6.47;;;2.83;;
55455;SDS011;63021;52.836;6.376;2023-08-06T12:39:33;3.33;;;3.03;;
55455;SDS011;63021;52.836;6.376;2023-08-06T12:42:00;2.85;;;2.65;;
55455;SDS011;63021;52.836;6.376;2023-08-06T12:44:26;3.03;;;2.72;;
55455;SDS011;63021;52.836;6.376;2023-08-06T12:46:51;7.40;;;2.80;;
55455;SDS011;63021;52.836;6.376;2023-08-06T12:49:17;2.67;;;2.30;;
55455;SDS011;63021;52.836;6.376;2023-08-06T12:51:43;4.15;;;2.95;;
55455;SDS011;63021;52.836;6.376;2023-08-06T12:54:09;2.95;;;2.65;;
55455;SDS011;63021;52.836;6.376;2023-08-06T12:56:34;3.83;;;2.47;;
55455;SDS011;63021;52.836;6.376;2023-08-06T12:59:00;2.88;;;2.60;;
55455;SDS011;63021;52.836;6.376;2023-08-06T13:01:25;2.63;;;2.42;;
55455;SDS011;63021;52.836;6.376;2023-08-06T13:03:51;3.10;;;2.78;;
55455;SDS011;63021;52.836;6.376;2023-08-06T13:06:16;3.10;;;2.60;;
55455;SDS011;63021;52.836;6.376;2023-08-06T13:08:41;2.80;;;2.58;;
55455;SDS011;63021;52.836;6.376;2023-08-06T13:11:07;2.80;;;2.60;;
55455;SDS011;63021;52.836;6.376;2023-08-06T13:13:32;5.47;;;2.53;;
55455;SDS011;63021;52.836;6.376;2023-08-06T13:15:58;5.20;;;2.38;;
55455;SDS011;63021;52.836;6.376;2023-08-06T13:18:23;2.50;;;1.90;;
55455;SDS011;63021;52.836;6.376;2023-08-06T13:20:49;2.80;;;2.20;;
55455;SDS011;63021;52.836;6.376;2023-08-06T13:23:17;2.58;;;2.08;;
55455;SDS011;63021;52.836;6.376;2023-08-06T13:25:43;2.10;;;2.00;;
55455;SDS011;63021;52.836;6.376;2023-08-06T13:28:08;2.63;;;2.00;;
55455;SDS011;63021;52.836;6.376;2023-08-06T13:30:33;1.80;;;1.70;;
55455;SDS011;63021;52.836;6.376;2023-08-06T13:33:00;2.22;;;2.10;;
55455;SDS011;63021;52.836;6.376;2023-08-06T13:35:26;3.38;;;2.35;;
55455;SDS011;63021;52.836;6.376;2023-08-06T13:37:52;3.55;;;2.60;;
55455;SDS011;63021;52.836;6.376;2023-08-06T13:40:18;2.65;;;2.15;;
55455;SDS011;63021;52.836;6.376;2023-08-06T13:42:43;2.50;;;2.20;;
55455;SDS011;63021;52.836;6.376;2023-08-06T13:45:09;4.22;;;2.10;;
55455;SDS011;63021;52.836;6.376;2023-08-06T13:47:34;4.38;;;2.17;;
55455;SDS011;63021;52.836;6.376;2023-08-06T13:50:00;3.13;;;2.30;;
55455;SDS011;63021;52.836;6.376;2023-08-06T13:52:26;4.72;;;2.40;;
55455;SDS011;63021;52.836;6.376;2023-08-06T13:54:52;2.67;;;2.47;;
55455;SDS011;63021;52.836;6.376;2023-08-06T13:57:17;4.28;;;2.85;;
55455;SDS011;63021;52.836;6.376;2023-08-06T13:59:43;2.30;;;2.10;;
55455;SDS011;63021;52.836;6.376;2023-08-06T14:02:09;2.90;;;2.60;;
55455;SDS011;63021;52.836;6.376;2023-08-06T14:04:35;3.28;;;2.60;;
55455;SDS011;63021;52.836;6.376;2023-08-06T14:07:02;4.20;;;2.47;;
55455;SDS011;63021;52.836;6.376;2023-08-06T14:09:28;3.15;;;2.42;;
55455;SDS011;63021;52.836;6.376;2023-08-06T14:11:53;2.40;;;2.20;;
55455;SDS011;63021;52.836;6.376;2023-08-06T14:14:19;3.42;;;2.20;;
55455;SDS011;63021;52.836;6.376;2023-08-06T14:16:55;2.20;;;2.00;;
55455;SDS011;63021;52.836;6.376;2023-08-06T14:19:20;7.43;;;2.33;;
55455;SDS011;63021;52.836;6.376;2023-08-06T14:21:46;6.57;;;2.83;;
55455;SDS011;63021;52.836;6.376;2023-08-06T14:24:11;3.03;;;1.95;;
55455;SDS011;63021;52.836;6.376;2023-08-06T14:26:37;2.88;;;1.90;;
55455;SDS011;63021;52.836;6.376;2023-08-06T14:29:02;3.83;;;2.22;;
55455;SDS011;63021;52.836;6.376;2023-08-06T14:31:28;4.63;;;2.30;;
55455;SDS011;63021;52.836;6.376;2023-08-06T14:33:53;3.53;;;2.40;;
55455;SDS011;63021;52.836;6.376;2023-08-06T14:36:19;2.65;;;2.17;;
55455;SDS011;63021;52.836;6.376;2023-08-06T14:38:45;3.40;;;2.25;;
55455;SDS011;63021;52.836;6.376;2023-08-06T14:41:10;3.75;;;2.15;;
55455;SDS011;63021;52.836;6.376;2023-08-06T14:43:36;2.25;;;1.85;;
55455;SDS011;63021;52.836;6.376;2023-08-06T14:46:01;3.85;;;2.35;;
55455;SDS011;63021;52.836;6.376;2023-08-06T14:48:27;3.60;;;2.70;;
55455;SDS011;63021;52.836;6.376;2023-08-06T14:50:53;2.67;;;2.25;;
55455;SDS011;63021;52.836;6.376;2023-08-06T14:53:19;4.28;;;2.40;;